CCAYT SCNT-SCEL
Flight info
| Callsign | CCAYT |
|---|---|
| Flight time | 2h 38m |
| Altitude | 40000 |
| Route | N0428F400 KOLP3A KOLPU UQ802 ESGOR/N0424F430 UQ802 EROLO EROL8A |
| Aircraft | C25C/M-SDE2E3FGHRWXY/LB1 |
Departure
| Time | 2026-04-26 14:56 |
|---|---|
| Airport | Lieutenant Julio Gallardo Airport (SCNT) |
Arrival
| Time | 2026-04-26 17:34 |
|---|---|
| Airport | Comodoro Arturo Merino Benítez International Airport (SCEL) |
| Time | Latitude | Longitude | Altitude | Speed | Heading |
|---|---|---|---|---|---|
| 2026-04-26 14:46 | -51.66876 | -72.52880 | 216 ft | 0 kts | 145° |
| 2026-04-26 14:49 | -51.66876 | -72.52881 | 216 ft | 0 kts | 295° |
| 2026-04-26 14:53 | -51.66873 | -72.52891 | 216 ft | 3 kts | 289° |
| 2026-04-26 14:53 | -51.66901 | -72.52948 | 215 ft | 11 kts | 208° |
| 2026-04-26 14:53 | -51.66984 | -72.53025 | 215 ft | 15 kts | 206° |
| 2026-04-26 14:54 | -51.67061 | -72.52897 | 216 ft | 22 kts | 120° |
| 2026-04-26 14:54 | -51.67144 | -72.52658 | 218 ft | 27 kts | 119° |
| 2026-04-26 14:54 | -51.67236 | -72.52400 | 219 ft | 26 kts | 120° |
| 2026-04-26 14:54 | -51.67330 | -72.52134 | 218 ft | 29 kts | 120° |
| 2026-04-26 14:55 | -51.67418 | -72.51870 | 218 ft | 19 kts | 104° |
| 2026-04-26 14:55 | -51.67436 | -72.51829 | 219 ft | 6 kts | 263° |
| 2026-04-26 14:55 | -51.67323 | -72.52156 | 218 ft | 77 kts | 299° |
| 2026-04-26 14:55 | -51.66918 | -72.53306 | 377 ft | 145 kts | 301° |
| 2026-04-26 14:56 | -51.66390 | -72.54795 | 1151 ft | 162 kts | 301° |
| 2026-04-26 14:56 | -51.65807 | -72.56436 | 2020 ft | 174 kts | 301° |
| 2026-04-26 14:56 | -51.65181 | -72.58208 | 2967 ft | 192 kts | 300° |
| 2026-04-26 14:56 | -51.64490 | -72.60150 | 4064 ft | 207 kts | 300° |
| 2026-04-26 14:57 | -51.63737 | -72.62271 | 4877 ft | 233 kts | 299° |
| 2026-04-26 14:57 | -51.62906 | -72.64613 | 5972 ft | 242 kts | 298° |
| 2026-04-26 14:57 | -51.62076 | -72.66958 | 7171 ft | 245 kts | 297° |
| 2026-04-26 14:57 | -51.61177 | -72.69367 | 8193 ft | 255 kts | 304° |
| 2026-04-26 14:58 | -51.60301 | -72.70675 | 8886 ft | 264 kts | 321° |
| 2026-04-26 14:58 | -51.58608 | -72.71974 | 9913 ft | 279 kts | 343° |
| 2026-04-26 14:58 | -51.56600 | -72.72269 | 10575 ft | 302 kts | 352° |
| 2026-04-26 14:58 | -51.54403 | -72.72483 | 10936 ft | 330 kts | 354° |
| 2026-04-26 14:59 | -51.52076 | -72.72602 | 11696 ft | 338 kts | 354° |
| 2026-04-26 14:59 | -51.49719 | -72.72774 | 12541 ft | 345 kts | 353° |
| 2026-04-26 14:59 | -51.47312 | -72.72994 | 13395 ft | 351 kts | 353° |
| 2026-04-26 14:59 | -51.45674 | -72.73192 | 13930 ft | 354 kts | 349° |
| 2026-04-26 15:00 | -51.42655 | -72.75170 | 14975 ft | 349 kts | 326° |
| 2026-04-26 15:00 | -51.40579 | -72.77141 | 15754 ft | 351 kts | 323° |
| 2026-04-26 15:00 | -51.38519 | -72.79281 | 16519 ft | 353 kts | 322° |
| 2026-04-26 15:00 | -51.36446 | -72.81392 | 17277 ft | 357 kts | 324° |
| 2026-04-26 15:01 | -51.34327 | -72.83468 | 18041 ft | 360 kts | 324° |
| 2026-04-26 15:01 | -51.32181 | -72.85571 | 18729 ft | 363 kts | 324° |
| 2026-04-26 15:01 | -51.30007 | -72.87726 | 19339 ft | 368 kts | 324° |
| 2026-04-26 15:01 | -51.27830 | -72.89893 | 19941 ft | 373 kts | 324° |
| 2026-04-26 15:02 | -51.25603 | -72.92091 | 20582 ft | 377 kts | 324° |
| 2026-04-26 15:02 | -51.23348 | -72.94311 | 21199 ft | 383 kts | 325° |
| 2026-04-26 15:02 | -51.21080 | -72.96545 | 21825 ft | 388 kts | 325° |
| 2026-04-26 15:02 | -51.18913 | -72.99097 | 22425 ft | 390 kts | 317° |
| 2026-04-26 15:03 | -51.16796 | -73.01875 | 23040 ft | 395 kts | 318° |
| 2026-04-26 15:03 | -51.14629 | -73.04648 | 23642 ft | 400 kts | 318° |
| 2026-04-26 15:03 | -51.12459 | -73.07417 | 24157 ft | 403 kts | 318° |
| 2026-04-26 15:03 | -51.10265 | -73.10235 | 24711 ft | 404 kts | 317° |
| 2026-04-26 15:04 | -51.08090 | -73.13032 | 25206 ft | 406 kts | 317° |
| 2026-04-26 15:04 | -51.05871 | -73.15873 | 25671 ft | 408 kts | 317° |
| 2026-04-26 15:04 | -51.03678 | -73.18677 | 26119 ft | 409 kts | 316° |
| 2026-04-26 15:04 | -51.01450 | -73.21520 | 26531 ft | 410 kts | 316° |
| 2026-04-26 15:05 | -50.99210 | -73.24376 | 26927 ft | 412 kts | 316° |
| 2026-04-26 15:05 | -50.97726 | -73.26271 | 27191 ft | 413 kts | 316° |
| 2026-04-26 15:05 | -50.94739 | -73.30073 | 27659 ft | 415 kts | 316° |
| 2026-04-26 15:05 | -50.92471 | -73.32950 | 27991 ft | 416 kts | 315° |
| 2026-04-26 15:06 | -50.90215 | -73.35812 | 28457 ft | 414 kts | 315° |
| 2026-04-26 15:06 | -50.87994 | -73.38629 | 28962 ft | 412 kts | 315° |
| 2026-04-26 15:06 | -50.85749 | -73.41468 | 29451 ft | 410 kts | 315° |
| 2026-04-26 15:06 | -50.83544 | -73.44258 | 29949 ft | 408 kts | 314° |
| 2026-04-26 15:07 | -50.79139 | -73.49815 | 30776 ft | 405 kts | 314° |
| 2026-04-26 15:07 | -50.76933 | -73.52598 | 31141 ft | 403 kts | 314° |
| 2026-04-26 15:07 | -50.74749 | -73.55338 | 31460 ft | 402 kts | 314° |
| 2026-04-26 15:08 | -50.72554 | -73.58100 | 31780 ft | 401 kts | 314° |
| 2026-04-26 15:08 | -50.70390 | -73.60819 | 32067 ft | 401 kts | 314° |
| 2026-04-26 15:08 | -50.68194 | -73.63565 | 32352 ft | 400 kts | 314° |
| 2026-04-26 15:08 | -50.66013 | -73.66299 | 32663 ft | 399 kts | 314° |
| 2026-04-26 15:09 | -50.63863 | -73.68988 | 32960 ft | 398 kts | 314° |
| 2026-04-26 15:09 | -50.61682 | -73.71710 | 33249 ft | 397 kts | 314° |
| 2026-04-26 15:09 | -50.59524 | -73.74399 | 33525 ft | 396 kts | 314° |
| 2026-04-26 15:09 | -50.57385 | -73.77067 | 33797 ft | 395 kts | 314° |
| 2026-04-26 15:10 | -50.55229 | -73.79749 | 34040 ft | 394 kts | 314° |
| 2026-04-26 15:10 | -50.53795 | -73.81535 | 34184 ft | 394 kts | 314° |
| 2026-04-26 15:10 | -50.50917 | -73.85105 | 34455 ft | 393 kts | 314° |
| 2026-04-26 15:10 | -50.48788 | -73.87741 | 34632 ft | 394 kts | 314° |
| 2026-04-26 15:11 | -50.46632 | -73.90419 | 34808 ft | 394 kts | 314° |
| 2026-04-26 15:11 | -50.44473 | -73.93087 | 34985 ft | 395 kts | 314° |
| 2026-04-26 15:11 | -50.42213 | -73.95624 | 35151 ft | 402 kts | 320° |
| 2026-04-26 15:11 | -50.39749 | -73.97768 | 35299 ft | 408 kts | 327° |
| 2026-04-26 15:12 | -50.37129 | -73.99464 | 35460 ft | 414 kts | 333° |
| 2026-04-26 15:12 | -50.34321 | -74.00703 | 35660 ft | 421 kts | 340° |
| 2026-04-26 15:12 | -50.31395 | -74.01421 | 35824 ft | 428 kts | 347° |
| 2026-04-26 15:12 | -50.28428 | -74.01587 | 35974 ft | 435 kts | 355° |
| 2026-04-26 15:13 | -50.25382 | -74.01244 | 36136 ft | 438 kts | 359° |
| 2026-04-26 15:13 | -50.22324 | -74.00829 | 36323 ft | 439 kts | 359° |
| 2026-04-26 15:13 | -50.19294 | -74.00434 | 36507 ft | 439 kts | 359° |
| 2026-04-26 15:13 | -50.16239 | -74.00038 | 36695 ft | 440 kts | 359° |
| 2026-04-26 15:14 | -50.13219 | -73.99631 | 36887 ft | 440 kts | 359° |
| 2026-04-26 15:14 | -50.10149 | -73.99221 | 37096 ft | 441 kts | 359° |
| 2026-04-26 15:14 | -50.07086 | -73.98818 | 37287 ft | 441 kts | 359° |
| 2026-04-26 15:14 | -50.04023 | -73.98414 | 37474 ft | 441 kts | 359° |
| 2026-04-26 15:15 | -50.00994 | -73.98016 | 37650 ft | 442 kts | 359° |
| 2026-04-26 15:15 | -49.97915 | -73.97607 | 37852 ft | 443 kts | 359° |
| 2026-04-26 15:15 | -49.94827 | -73.97202 | 38059 ft | 443 kts | 359° |
| 2026-04-26 15:15 | -49.91784 | -73.96802 | 38257 ft | 444 kts | 359° |
| 2026-04-26 15:16 | -49.88685 | -73.96396 | 38477 ft | 444 kts | 360° |
| 2026-04-26 15:16 | -49.85587 | -73.95988 | 38727 ft | 445 kts | 360° |
| 2026-04-26 15:16 | -49.82533 | -73.95588 | 38948 ft | 445 kts | 360° |
| 2026-04-26 15:16 | -49.79433 | -73.95182 | 39131 ft | 445 kts | 360° |
| 2026-04-26 15:17 | -49.76366 | -73.94784 | 39308 ft | 445 kts | 360° |
| 2026-04-26 15:17 | -49.74303 | -73.94513 | 39431 ft | 446 kts | 360° |
| 2026-04-26 15:17 | -49.70160 | -73.93974 | 39693 ft | 446 kts | 0° |
| 2026-04-26 15:17 | -49.67085 | -73.93573 | 39904 ft | 446 kts | 0° |
| 2026-04-26 15:18 | -49.63985 | -73.93171 | 40107 ft | 446 kts | 0° |
| 2026-04-26 15:18 | -49.60899 | -73.92771 | 40173 ft | 451 kts | 0° |
| 2026-04-26 15:18 | -49.54584 | -73.91952 | 40232 ft | 453 kts | 0° |
| 2026-04-26 15:19 | -49.48318 | -73.91142 | 40231 ft | 454 kts | 0° |
| 2026-04-26 15:19 | -49.42027 | -73.90333 | 40234 ft | 455 kts | 0° |
| 2026-04-26 15:20 | -49.35703 | -73.89518 | 40240 ft | 456 kts | 0° |
| 2026-04-26 15:20 | -49.29387 | -73.88710 | 40244 ft | 456 kts | 0° |
| 2026-04-26 15:21 | -49.23073 | -73.87902 | 40250 ft | 456 kts | 0° |
| 2026-04-26 15:21 | -49.16740 | -73.87095 | 40252 ft | 457 kts | 0° |
| 2026-04-26 15:22 | -49.10388 | -73.86288 | 40257 ft | 458 kts | 0° |
| 2026-04-26 15:22 | -49.04014 | -73.85478 | 40266 ft | 457 kts | 0° |
| 2026-04-26 15:23 | -48.97697 | -73.84680 | 40266 ft | 457 kts | 0° |
| 2026-04-26 15:23 | -48.91353 | -73.83879 | 40270 ft | 458 kts | 360° |
| 2026-04-26 15:24 | -48.85019 | -73.83083 | 40272 ft | 458 kts | 0° |
| 2026-04-26 15:24 | -48.78631 | -73.82280 | 40274 ft | 459 kts | 360° |
| 2026-04-26 15:25 | -48.73315 | -73.81615 | 40278 ft | 460 kts | 360° |
| 2026-04-26 15:25 | -48.65875 | -73.80687 | 40282 ft | 460 kts | 360° |
| 2026-04-26 15:26 | -48.59513 | -73.79893 | 40283 ft | 460 kts | 0° |
| 2026-04-26 15:26 | -48.53153 | -73.79103 | 40285 ft | 460 kts | 0° |
| 2026-04-26 15:27 | -48.46738 | -73.78307 | 40298 ft | 461 kts | 360° |
| 2026-04-26 15:27 | -48.40346 | -73.77518 | 40303 ft | 461 kts | 360° |
| 2026-04-26 15:28 | -48.33949 | -73.76727 | 40301 ft | 460 kts | 0° |
| 2026-04-26 15:28 | -48.27579 | -73.75944 | 40305 ft | 460 kts | 360° |
| 2026-04-26 15:29 | -48.21212 | -73.75165 | 40303 ft | 460 kts | 360° |
| 2026-04-26 15:29 | -48.14813 | -73.74384 | 40414 ft | 461 kts | 360° |
| 2026-04-26 15:30 | -48.08432 | -73.73606 | 40817 ft | 461 kts | 0° |
| 2026-04-26 15:30 | -48.05220 | -73.73217 | 40996 ft | 461 kts | 360° |
| 2026-04-26 15:30 | -48.02010 | -73.72830 | 41169 ft | 461 kts | 0° |
| 2026-04-26 15:31 | -47.98846 | -73.72444 | 41354 ft | 461 kts | 0° |
| 2026-04-26 15:31 | -47.92419 | -73.71665 | 41739 ft | 461 kts | 0° |
| 2026-04-26 15:31 | -47.89243 | -73.71282 | 41926 ft | 462 kts | 0° |
| 2026-04-26 15:32 | -47.84976 | -73.70769 | 42167 ft | 462 kts | 0° |
| 2026-04-26 15:32 | -47.79626 | -73.70124 | 42479 ft | 462 kts | 0° |
| 2026-04-26 15:32 | -47.76415 | -73.69739 | 42663 ft | 462 kts | 0° |
| 2026-04-26 15:33 | -47.73239 | -73.69357 | 42847 ft | 462 kts | 0° |
| 2026-04-26 15:33 | -47.70018 | -73.68971 | 43055 ft | 462 kts | 0° |
| 2026-04-26 15:33 | -47.66845 | -73.68590 | 43230 ft | 463 kts | 0° |
| 2026-04-26 15:33 | -47.63603 | -73.68204 | 43268 ft | 465 kts | 1° |
| 2026-04-26 15:34 | -47.57180 | -73.67436 | 43306 ft | 465 kts | 1° |
| 2026-04-26 15:34 | -47.50692 | -73.66664 | 43311 ft | 466 kts | 1° |
| 2026-04-26 15:35 | -47.44229 | -73.65897 | 43307 ft | 467 kts | 1° |
| 2026-04-26 15:35 | -47.37758 | -73.65130 | 43308 ft | 467 kts | 1° |
| 2026-04-26 15:36 | -47.31276 | -73.64365 | 43313 ft | 468 kts | 1° |
| 2026-04-26 15:36 | -47.24802 | -73.63601 | 43316 ft | 469 kts | 1° |
| 2026-04-26 15:37 | -47.18289 | -73.62835 | 43319 ft | 470 kts | 1° |
| 2026-04-26 15:37 | -47.11734 | -73.62067 | 43312 ft | 471 kts | 1° |
| 2026-04-26 15:38 | -47.05202 | -73.61301 | 43316 ft | 472 kts | 1° |
| 2026-04-26 15:38 | -46.98682 | -73.60620 | 43319 ft | 471 kts | 358° |
| 2026-04-26 15:39 | -46.92137 | -73.60331 | 43325 ft | 471 kts | 358° |
| 2026-04-26 15:39 | -46.87743 | -73.60111 | 43325 ft | 471 kts | 358° |
| 2026-04-26 15:40 | -46.79017 | -73.59705 | 43332 ft | 471 kts | 358° |
| 2026-04-26 15:40 | -46.72466 | -73.59394 | 43331 ft | 472 kts | 358° |
| 2026-04-26 15:41 | -46.65917 | -73.59088 | 43337 ft | 472 kts | 358° |
| 2026-04-26 15:41 | -46.59360 | -73.58780 | 43340 ft | 472 kts | 358° |
| 2026-04-26 15:42 | -46.52799 | -73.58476 | 43338 ft | 473 kts | 358° |
| 2026-04-26 15:42 | -46.46233 | -73.58168 | 43342 ft | 472 kts | 358° |
| 2026-04-26 15:43 | -46.39638 | -73.57863 | 43354 ft | 473 kts | 358° |
| 2026-04-26 15:44 | -46.29765 | -73.57405 | 43351 ft | 473 kts | 358° |
| 2026-04-26 15:44 | -46.20999 | -73.57001 | 43359 ft | 473 kts | 358° |
| 2026-04-26 15:45 | -46.11098 | -73.56545 | 43359 ft | 473 kts | 358° |
| 2026-04-26 15:46 | -46.01253 | -73.56094 | 43351 ft | 474 kts | 358° |
| 2026-04-26 15:46 | -45.95766 | -73.55844 | 43359 ft | 474 kts | 358° |
| 2026-04-26 15:47 | -45.84738 | -73.55342 | 43356 ft | 474 kts | 358° |
| 2026-04-26 15:48 | -45.78182 | -73.55043 | 43359 ft | 474 kts | 358° |
| 2026-04-26 15:48 | -45.71584 | -73.54745 | 43358 ft | 474 kts | 358° |
| 2026-04-26 15:49 | -45.64983 | -73.54446 | 43354 ft | 474 kts | 358° |
| 2026-04-26 15:49 | -45.58402 | -73.54149 | 43354 ft | 474 kts | 358° |
| 2026-04-26 15:50 | -45.51816 | -73.53853 | 43357 ft | 474 kts | 358° |
| 2026-04-26 15:50 | -45.45190 | -73.53556 | 43352 ft | 474 kts | 358° |
| 2026-04-26 15:51 | -45.38606 | -73.53261 | 43359 ft | 474 kts | 358° |
| 2026-04-26 15:51 | -45.32030 | -73.52966 | 43358 ft | 474 kts | 358° |
| 2026-04-26 15:52 | -45.25444 | -73.52674 | 43359 ft | 475 kts | 358° |
| 2026-04-26 15:52 | -45.18835 | -73.52379 | 43359 ft | 475 kts | 358° |
| 2026-04-26 15:53 | -45.12241 | -73.51781 | 43364 ft | 476 kts | 2° |
| 2026-04-26 15:53 | -45.05662 | -73.50963 | 43368 ft | 475 kts | 2° |
| 2026-04-26 15:54 | -44.99040 | -73.50132 | 43366 ft | 476 kts | 2° |
| 2026-04-26 15:54 | -44.92483 | -73.49309 | 43366 ft | 476 kts | 2° |
| 2026-04-26 15:55 | -44.85865 | -73.48487 | 43361 ft | 476 kts | 2° |
| 2026-04-26 15:55 | -44.79291 | -73.47667 | 43365 ft | 475 kts | 2° |
| 2026-04-26 15:56 | -44.72689 | -73.46848 | 43370 ft | 475 kts | 2° |
| 2026-04-26 15:56 | -44.66111 | -73.46031 | 43363 ft | 475 kts | 2° |
| 2026-04-26 15:57 | -44.59525 | -73.45219 | 43371 ft | 475 kts | 2° |
| 2026-04-26 15:57 | -44.52954 | -73.44409 | 43373 ft | 475 kts | 2° |
| 2026-04-26 15:58 | -44.46331 | -73.43592 | 43372 ft | 475 kts | 2° |
| 2026-04-26 15:58 | -44.39738 | -73.42783 | 43368 ft | 475 kts | 2° |
| 2026-04-26 15:59 | -44.33168 | -73.41979 | 43373 ft | 475 kts | 2° |
| 2026-04-26 15:59 | -44.26588 | -73.41175 | 43374 ft | 475 kts | 2° |
| 2026-04-26 16:00 | -44.20014 | -73.40372 | 43373 ft | 475 kts | 2° |
| 2026-04-26 16:00 | -44.13419 | -73.39570 | 43375 ft | 475 kts | 2° |
| 2026-04-26 16:01 | -44.06830 | -73.38771 | 43375 ft | 475 kts | 2° |
| 2026-04-26 16:01 | -44.00242 | -73.37973 | 43377 ft | 475 kts | 2° |
| 2026-04-26 16:02 | -43.93679 | -73.37178 | 43380 ft | 475 kts | 2° |
| 2026-04-26 16:02 | -43.87098 | -73.36385 | 43377 ft | 475 kts | 2° |
| 2026-04-26 16:03 | -43.80500 | -73.35592 | 43372 ft | 475 kts | 2° |
| 2026-04-26 16:03 | -43.73898 | -73.34799 | 43375 ft | 475 kts | 2° |
| 2026-04-26 16:04 | -43.67325 | -73.34011 | 43375 ft | 475 kts | 2° |
| 2026-04-26 16:04 | -43.60715 | -73.33221 | 43379 ft | 475 kts | 2° |
| 2026-04-26 16:05 | -43.54140 | -73.32438 | 43380 ft | 475 kts | 2° |
| 2026-04-26 16:05 | -43.47552 | -73.31653 | 43392 ft | 475 kts | 2° |
| 2026-04-26 16:06 | -43.40976 | -73.30872 | 43386 ft | 475 kts | 2° |
| 2026-04-26 16:06 | -43.34404 | -73.30093 | 43392 ft | 475 kts | 2° |
| 2026-04-26 16:07 | -43.27795 | -73.29313 | 43391 ft | 475 kts | 2° |
| 2026-04-26 16:07 | -43.21210 | -73.28535 | 43393 ft | 475 kts | 2° |
| 2026-04-26 16:08 | -43.14640 | -73.27761 | 43387 ft | 475 kts | 2° |
| 2026-04-26 16:08 | -43.08060 | -73.27062 | 43392 ft | 475 kts | 1° |
| 2026-04-26 16:09 | -43.01437 | -73.26367 | 43388 ft | 475 kts | 1° |
| 2026-04-26 16:09 | -42.94887 | -73.25669 | 43390 ft | 474 kts | 1° |
| 2026-04-26 16:10 | -42.88302 | -73.24981 | 43385 ft | 474 kts | 1° |
| 2026-04-26 16:10 | -42.81735 | -73.24286 | 43388 ft | 474 kts | 1° |
| 2026-04-26 16:11 | -42.75157 | -73.23598 | 43387 ft | 474 kts | 1° |
| 2026-04-26 16:11 | -42.68598 | -73.22910 | 43390 ft | 473 kts | 1° |
| 2026-04-26 16:12 | -42.61999 | -73.22222 | 43387 ft | 473 kts | 1° |
| 2026-04-26 16:12 | -42.52152 | -73.21195 | 43387 ft | 473 kts | 1° |
| 2026-04-26 16:13 | -42.45611 | -73.20515 | 43380 ft | 472 kts | 1° |
| 2026-04-26 16:13 | -42.39066 | -73.19824 | 43381 ft | 472 kts | 1° |
| 2026-04-26 16:14 | -42.32528 | -73.19075 | 43375 ft | 472 kts | 1° |
| 2026-04-26 16:15 | -42.22707 | -73.17998 | 43377 ft | 471 kts | 1° |
| 2026-04-26 16:15 | -42.16175 | -73.17273 | 43381 ft | 471 kts | 1° |
| 2026-04-26 16:16 | -42.06422 | -73.16199 | 43377 ft | 470 kts | 1° |
| 2026-04-26 16:16 | -41.99876 | -73.15481 | 43380 ft | 470 kts | 1° |
| 2026-04-26 16:17 | -41.93358 | -73.14767 | 43373 ft | 470 kts | 1° |
| 2026-04-26 16:17 | -41.86871 | -73.14056 | 43378 ft | 469 kts | 1° |
| 2026-04-26 16:18 | -41.77099 | -73.12989 | 43379 ft | 469 kts | 1° |
| 2026-04-26 16:19 | -41.67332 | -73.11927 | 43369 ft | 469 kts | 1° |
| 2026-04-26 16:20 | -41.57591 | -73.10870 | 43368 ft | 469 kts | 0° |
| 2026-04-26 16:20 | -41.47853 | -73.09816 | 43371 ft | 468 kts | 0° |
| 2026-04-26 16:21 | -41.41378 | -73.08916 | 43364 ft | 470 kts | 5° |
| 2026-04-26 16:21 | -41.34914 | -73.07693 | 43368 ft | 470 kts | 4° |
| 2026-04-26 16:22 | -41.28448 | -73.06483 | 43367 ft | 470 kts | 4° |
| 2026-04-26 16:22 | -41.21946 | -73.05256 | 43367 ft | 469 kts | 4° |
| 2026-04-26 16:23 | -41.15481 | -73.04048 | 43371 ft | 469 kts | 4° |
| 2026-04-26 16:23 | -41.09040 | -73.02841 | 43462 ft | 468 kts | 4° |
| 2026-04-26 16:24 | -41.05812 | -73.02244 | 43621 ft | 468 kts | 4° |
| 2026-04-26 16:24 | -41.02602 | -73.01658 | 43794 ft | 468 kts | 4° |
| 2026-04-26 16:24 | -40.99374 | -73.01066 | 43980 ft | 468 kts | 4° |
| 2026-04-26 16:24 | -40.96145 | -73.00470 | 44137 ft | 467 kts | 4° |
| 2026-04-26 16:25 | -40.92905 | -72.99874 | 44307 ft | 467 kts | 4° |
| 2026-04-26 16:25 | -40.89716 | -72.99290 | 44465 ft | 467 kts | 4° |
| 2026-04-26 16:25 | -40.86479 | -72.98698 | 44631 ft | 466 kts | 3° |
| 2026-04-26 16:25 | -40.83287 | -72.98114 | 44792 ft | 466 kts | 3° |
| 2026-04-26 16:26 | -40.80061 | -72.97524 | 44939 ft | 466 kts | 3° |
| 2026-04-26 16:26 | -40.77929 | -72.97133 | 45040 ft | 466 kts | 3° |
| 2026-04-26 16:26 | -40.73649 | -72.96353 | 45226 ft | 465 kts | 3° |
| 2026-04-26 16:26 | -40.70433 | -72.95767 | 45313 ft | 466 kts | 3° |
| 2026-04-26 16:27 | -40.63986 | -72.94593 | 45347 ft | 469 kts | 3° |
| 2026-04-26 16:27 | -40.57527 | -72.93419 | 45361 ft | 469 kts | 3° |
| 2026-04-26 16:28 | -40.51043 | -72.92243 | 45362 ft | 470 kts | 3° |
| 2026-04-26 16:28 | -40.44581 | -72.91073 | 45367 ft | 470 kts | 3° |
| 2026-04-26 16:29 | -40.38111 | -72.89905 | 45362 ft | 471 kts | 3° |
| 2026-04-26 16:29 | -40.31621 | -72.88742 | 45362 ft | 470 kts | 2° |
| 2026-04-26 16:30 | -40.25105 | -72.87716 | 45364 ft | 470 kts | 2° |
| 2026-04-26 16:30 | -40.18629 | -72.86639 | 45363 ft | 471 kts | 2° |
| 2026-04-26 16:31 | -40.12150 | -72.85587 | 45363 ft | 471 kts | 2° |
| 2026-04-26 16:31 | -40.06732 | -72.84705 | 45367 ft | 471 kts | 2° |
| 2026-04-26 16:32 | -40.00240 | -72.83646 | 45363 ft | 471 kts | 1° |
| 2026-04-26 16:32 | -39.93747 | -72.82593 | 45363 ft | 471 kts | 1° |
| 2026-04-26 16:33 | -39.87214 | -72.81533 | 45364 ft | 470 kts | 1° |
| 2026-04-26 16:33 | -39.80749 | -72.80488 | 45364 ft | 470 kts | 1° |
| 2026-04-26 16:34 | -39.74261 | -72.79439 | 45362 ft | 470 kts | 1° |
| 2026-04-26 16:34 | -39.67782 | -72.78369 | 45365 ft | 470 kts | 2° |
| 2026-04-26 16:35 | -39.61290 | -72.77176 | 45221 ft | 470 kts | 3° |
| 2026-04-26 16:35 | -39.58044 | -72.76612 | 45360 ft | 467 kts | 3° |
| 2026-04-26 16:35 | -39.54854 | -72.76064 | 45359 ft | 468 kts | 3° |
| 2026-04-26 16:36 | -39.48395 | -72.74914 | 45361 ft | 470 kts | 3° |
| 2026-04-26 16:36 | -39.41884 | -72.73774 | 45360 ft | 471 kts | 3° |
| 2026-04-26 16:37 | -39.35424 | -72.72639 | 45359 ft | 471 kts | 3° |
| 2026-04-26 16:37 | -39.28881 | -72.71491 | 45359 ft | 472 kts | 3° |
| 2026-04-26 16:38 | -39.22386 | -72.70358 | 45357 ft | 472 kts | 3° |
| 2026-04-26 16:38 | -39.15890 | -72.69222 | 45353 ft | 472 kts | 3° |
| 2026-04-26 16:39 | -39.09400 | -72.68094 | 45354 ft | 471 kts | 3° |
| 2026-04-26 16:39 | -39.02887 | -72.66960 | 45351 ft | 472 kts | 3° |
| 2026-04-26 16:40 | -38.96392 | -72.65833 | 45350 ft | 472 kts | 3° |
| 2026-04-26 16:40 | -38.89881 | -72.64380 | 45353 ft | 476 kts | 9° |
| 2026-04-26 16:41 | -38.83402 | -72.62493 | 45354 ft | 476 kts | 8° |
| 2026-04-26 16:41 | -38.76932 | -72.60611 | 45349 ft | 477 kts | 8° |
| 2026-04-26 16:42 | -38.70487 | -72.58735 | 45344 ft | 477 kts | 8° |
| 2026-04-26 16:42 | -38.64001 | -72.56856 | 45350 ft | 477 kts | 8° |
| 2026-04-26 16:43 | -38.57524 | -72.54979 | 45345 ft | 477 kts | 8° |
| 2026-04-26 16:43 | -38.51052 | -72.53109 | 45339 ft | 477 kts | 8° |
| 2026-04-26 16:44 | -38.44571 | -72.51266 | 45341 ft | 478 kts | 8° |
| 2026-04-26 16:44 | -38.38076 | -72.49443 | 45335 ft | 478 kts | 8° |
| 2026-04-26 16:45 | -38.31597 | -72.47612 | 45336 ft | 478 kts | 8° |
| 2026-04-26 16:45 | -38.25062 | -72.45778 | 45327 ft | 479 kts | 8° |
| 2026-04-26 16:46 | -38.18573 | -72.43955 | 45333 ft | 479 kts | 8° |
| 2026-04-26 16:46 | -38.12083 | -72.42138 | 45334 ft | 479 kts | 8° |
| 2026-04-26 16:47 | -38.05592 | -72.40323 | 45326 ft | 479 kts | 8° |
| 2026-04-26 16:47 | -37.99089 | -72.38507 | 45320 ft | 479 kts | 8° |
| 2026-04-26 16:48 | -37.92587 | -72.36697 | 45322 ft | 479 kts | 8° |
| 2026-04-26 16:48 | -37.86087 | -72.34888 | 45312 ft | 479 kts | 8° |
| 2026-04-26 16:49 | -37.79554 | -72.33077 | 45310 ft | 478 kts | 8° |
| 2026-04-26 16:49 | -37.73081 | -72.31282 | 45311 ft | 478 kts | 8° |
| 2026-04-26 16:50 | -37.66569 | -72.29481 | 45309 ft | 477 kts | 7° |
| 2026-04-26 16:50 | -37.60082 | -72.27546 | 45302 ft | 478 kts | 9° |
| 2026-04-26 16:51 | -37.53632 | -72.25589 | 45297 ft | 478 kts | 9° |
| 2026-04-26 16:51 | -37.47180 | -72.23615 | 45292 ft | 477 kts | 9° |
| 2026-04-26 16:52 | -37.41796 | -72.21977 | 45285 ft | 477 kts | 9° |
| 2026-04-26 16:52 | -37.34272 | -72.19692 | 45286 ft | 476 kts | 9° |
| 2026-04-26 16:53 | -37.27834 | -72.17738 | 45278 ft | 476 kts | 9° |
| 2026-04-26 16:53 | -37.21415 | -72.15795 | 45279 ft | 475 kts | 9° |
| 2026-04-26 16:54 | -37.14956 | -72.13842 | 45278 ft | 475 kts | 8° |
| 2026-04-26 16:54 | -37.08538 | -72.11905 | 45269 ft | 475 kts | 8° |
| 2026-04-26 16:55 | -37.02148 | -72.09981 | 45262 ft | 474 kts | 8° |
| 2026-04-26 16:55 | -36.95709 | -72.08044 | 45259 ft | 474 kts | 8° |
| 2026-04-26 16:56 | -36.86082 | -72.05155 | 45253 ft | 474 kts | 8° |
| 2026-04-26 16:57 | -36.79685 | -72.03240 | 45244 ft | 473 kts | 8° |
| 2026-04-26 16:57 | -36.70112 | -72.00380 | 45243 ft | 473 kts | 8° |
| 2026-04-26 16:58 | -36.64800 | -71.98796 | 45244 ft | 472 kts | 8° |
| 2026-04-26 16:59 | -36.54121 | -71.95618 | 45232 ft | 471 kts | 8° |
| 2026-04-26 17:00 | -36.41382 | -71.91840 | 45229 ft | 470 kts | 8° |
| 2026-04-26 17:00 | -36.31834 | -71.89017 | 45227 ft | 470 kts | 8° |
| 2026-04-26 17:01 | -36.25486 | -71.87142 | 45222 ft | 469 kts | 8° |
| 2026-04-26 17:01 | -36.19150 | -71.85277 | 45220 ft | 468 kts | 8° |
| 2026-04-26 17:02 | -36.12807 | -71.83410 | 45219 ft | 468 kts | 8° |
| 2026-04-26 17:02 | -36.06465 | -71.81548 | 45212 ft | 468 kts | 7° |
| 2026-04-26 17:03 | -36.00163 | -71.79701 | 45214 ft | 467 kts | 7° |
| 2026-04-26 17:03 | -35.93859 | -71.77856 | 45217 ft | 467 kts | 7° |
| 2026-04-26 17:04 | -35.87504 | -71.75998 | 45209 ft | 467 kts | 7° |
| 2026-04-26 17:04 | -35.81185 | -71.74155 | 45210 ft | 467 kts | 7° |
| 2026-04-26 17:05 | -35.74872 | -71.72317 | 45212 ft | 467 kts | 7° |
| 2026-04-26 17:05 | -35.68564 | -71.70482 | 45215 ft | 467 kts | 7° |
| 2026-04-26 17:06 | -35.62204 | -71.68636 | 45207 ft | 467 kts | 7° |
| 2026-04-26 17:06 | -35.55885 | -71.66804 | 45206 ft | 467 kts | 7° |
| 2026-04-26 17:07 | -35.49575 | -71.64979 | 45197 ft | 467 kts | 7° |
| 2026-04-26 17:07 | -35.43247 | -71.63151 | 45198 ft | 467 kts | 7° |
| 2026-04-26 17:08 | -35.36931 | -71.61325 | 45197 ft | 467 kts | 7° |
| 2026-04-26 17:08 | -35.30613 | -71.59505 | 45199 ft | 467 kts | 7° |
| 2026-04-26 17:09 | -35.25323 | -71.57982 | 45197 ft | 467 kts | 7° |
| 2026-04-26 17:09 | -35.17988 | -71.55874 | 45199 ft | 467 kts | 7° |
| 2026-04-26 17:10 | -35.11671 | -71.54062 | 45196 ft | 466 kts | 7° |
| 2026-04-26 17:10 | -35.05310 | -71.52244 | 44713 ft | 471 kts | 7° |
| 2026-04-26 17:11 | -35.02114 | -71.51326 | 44029 ft | 468 kts | 7° |
| 2026-04-26 17:11 | -34.98982 | -71.50427 | 43365 ft | 465 kts | 7° |
| 2026-04-26 17:11 | -34.95850 | -71.49534 | 42721 ft | 462 kts | 7° |
| 2026-04-26 17:11 | -34.92718 | -71.48642 | 42085 ft | 459 kts | 7° |
| 2026-04-26 17:12 | -34.86550 | -71.46883 | 40886 ft | 456 kts | 7° |
| 2026-04-26 17:12 | -34.83455 | -71.46003 | 40309 ft | 454 kts | 7° |
| 2026-04-26 17:13 | -34.77347 | -71.44262 | 39219 ft | 450 kts | 3° |
| 2026-04-26 17:13 | -34.74303 | -71.43399 | 38628 ft | 447 kts | 3° |
| 2026-04-26 17:13 | -34.68246 | -71.41687 | 37242 ft | 451 kts | 4° |
| 2026-04-26 17:14 | -34.65173 | -71.40729 | 36577 ft | 459 kts | 9° |
| 2026-04-26 17:14 | -34.59112 | -71.37842 | 35298 ft | 469 kts | 15° |
| 2026-04-26 17:14 | -34.56120 | -71.36364 | 34699 ft | 470 kts | 15° |
| 2026-04-26 17:15 | -34.50019 | -71.33372 | 33386 ft | 473 kts | 15° |
| 2026-04-26 17:15 | -34.46959 | -71.31865 | 32706 ft | 476 kts | 16° |
| 2026-04-26 17:15 | -34.43919 | -71.30370 | 32046 ft | 479 kts | 16° |
| 2026-04-26 17:16 | -34.40816 | -71.28845 | 31404 ft | 482 kts | 16° |
| 2026-04-26 17:16 | -34.37688 | -71.27313 | 30772 ft | 484 kts | 17° |
| 2026-04-26 17:16 | -34.34549 | -71.25775 | 30154 ft | 486 kts | 17° |
| 2026-04-26 17:16 | -34.31430 | -71.24244 | 29423 ft | 488 kts | 17° |
| 2026-04-26 17:17 | -34.28265 | -71.22696 | 28745 ft | 488 kts | 17° |
| 2026-04-26 17:17 | -34.25114 | -71.21155 | 28090 ft | 487 kts | 18° |
| 2026-04-26 17:17 | -34.21998 | -71.19632 | 27504 ft | 485 kts | 18° |
| 2026-04-26 17:17 | -34.19915 | -71.18616 | 27082 ft | 483 kts | 18° |
| 2026-04-26 17:18 | -34.15792 | -71.16601 | 26233 ft | 476 kts | 18° |
| 2026-04-26 17:18 | -34.13756 | -71.15609 | 25823 ft | 473 kts | 18° |
| 2026-04-26 17:18 | -34.09711 | -71.13642 | 24995 ft | 469 kts | 18° |
| 2026-04-26 17:18 | -34.06702 | -71.12178 | 24384 ft | 465 kts | 19° |
| 2026-04-26 17:19 | -34.01701 | -71.09745 | 23307 ft | 463 kts | 19° |
| 2026-04-26 17:19 | -33.98725 | -71.08300 | 22687 ft | 459 kts | 19° |
| 2026-04-26 17:19 | -33.95752 | -71.06856 | 22077 ft | 455 kts | 19° |
| 2026-04-26 17:20 | -33.92908 | -71.05474 | 21498 ft | 434 kts | 20° |
| 2026-04-26 17:20 | -33.91073 | -71.04584 | 21129 ft | 422 kts | 20° |
| 2026-04-26 17:20 | -33.87500 | -71.02853 | 20405 ft | 401 kts | 20° |
| 2026-04-26 17:20 | -33.84956 | -71.01623 | 19885 ft | 388 kts | 20° |
| 2026-04-26 17:21 | -33.82499 | -71.00437 | 19386 ft | 378 kts | 20° |
| 2026-04-26 17:21 | -33.80029 | -70.99247 | 18874 ft | 389 kts | 20° |
| 2026-04-26 17:21 | -33.77471 | -70.98012 | 18339 ft | 407 kts | 20° |
| 2026-04-26 17:21 | -33.74810 | -70.96724 | 17775 ft | 415 kts | 21° |
| 2026-04-26 17:22 | -33.72129 | -70.95428 | 17211 ft | 412 kts | 21° |
| 2026-04-26 17:22 | -33.69513 | -70.94166 | 16679 ft | 404 kts | 21° |
| 2026-04-26 17:22 | -33.66923 | -70.92922 | 16151 ft | 396 kts | 21° |
| 2026-04-26 17:22 | -33.64394 | -70.91703 | 15635 ft | 390 kts | 21° |
| 2026-04-26 17:23 | -33.61882 | -70.90495 | 15121 ft | 385 kts | 21° |
| 2026-04-26 17:23 | -33.59403 | -70.89301 | 14620 ft | 381 kts | 21° |
| 2026-04-26 17:23 | -33.56974 | -70.88121 | 14116 ft | 377 kts | 23° |
| 2026-04-26 17:23 | -33.54699 | -70.86559 | 13595 ft | 373 kts | 32° |
| 2026-04-26 17:24 | -33.52534 | -70.84944 | 13109 ft | 369 kts | 32° |
| 2026-04-26 17:24 | -33.50349 | -70.83338 | 12621 ft | 365 kts | 31° |
| 2026-04-26 17:24 | -33.48177 | -70.81747 | 12138 ft | 362 kts | 31° |
| 2026-04-26 17:24 | -33.46035 | -70.80174 | 11661 ft | 359 kts | 32° |
| 2026-04-26 17:25 | -33.43939 | -70.78633 | 11198 ft | 355 kts | 32° |
| 2026-04-26 17:25 | -33.41880 | -70.77117 | 10739 ft | 339 kts | 32° |
| 2026-04-26 17:25 | -33.39912 | -70.75679 | 10182 ft | 318 kts | 32° |
| 2026-04-26 17:25 | -33.38106 | -70.74355 | 9733 ft | 290 kts | 32° |
| 2026-04-26 17:26 | -33.36459 | -70.73150 | 9356 ft | 268 kts | 32° |
| 2026-04-26 17:26 | -33.34934 | -70.72029 | 9029 ft | 255 kts | 32° |
| 2026-04-26 17:26 | -33.33397 | -70.70900 | 8696 ft | 262 kts | 32° |
| 2026-04-26 17:26 | -33.31794 | -70.69745 | 8332 ft | 272 kts | 29° |
| 2026-04-26 17:27 | -33.29971 | -70.69181 | 7954 ft | 281 kts | 358° |
| 2026-04-26 17:27 | -33.28028 | -70.69380 | 7591 ft | 273 kts | 354° |
| 2026-04-26 17:27 | -33.26180 | -70.69609 | 7256 ft | 260 kts | 353° |
| 2026-04-26 17:27 | -33.24428 | -70.69851 | 6927 ft | 252 kts | 353° |
| 2026-04-26 17:28 | -33.22702 | -70.70069 | 6596 ft | 243 kts | 354° |
| 2026-04-26 17:28 | -33.21303 | -70.70284 | 6330 ft | 232 kts | 347° |
| 2026-04-26 17:28 | -33.19963 | -70.71198 | 6026 ft | 223 kts | 312° |
| 2026-04-26 17:28 | -33.19201 | -70.72746 | 5868 ft | 212 kts | 283° |
| 2026-04-26 17:29 | -33.19137 | -70.74472 | 5687 ft | 208 kts | 263° |
| 2026-04-26 17:29 | -33.19217 | -70.75603 | 5527 ft | 204 kts | 262° |
| 2026-04-26 17:29 | -33.19529 | -70.77792 | 5173 ft | 195 kts | 240° |
| 2026-04-26 17:29 | -33.20383 | -70.78985 | 4919 ft | 187 kts | 214° |
| 2026-04-26 17:30 | -33.21575 | -70.79520 | 4647 ft | 189 kts | 186° |
| 2026-04-26 17:30 | -33.22899 | -70.79474 | 4407 ft | 192 kts | 177° |
| 2026-04-26 17:30 | -33.24222 | -70.79401 | 4163 ft | 190 kts | 177° |
| 2026-04-26 17:30 | -33.25522 | -70.79322 | 3928 ft | 187 kts | 178° |
| 2026-04-26 17:31 | -33.26831 | -70.79248 | 3676 ft | 188 kts | 178° |
| 2026-04-26 17:31 | -33.28078 | -70.79181 | 3399 ft | 163 kts | 178° |
| 2026-04-26 17:31 | -33.29128 | -70.79123 | 3213 ft | 139 kts | 178° |
| 2026-04-26 17:31 | -33.30013 | -70.79080 | 3027 ft | 120 kts | 178° |
| 2026-04-26 17:32 | -33.30814 | -70.79035 | 2872 ft | 115 kts | 178° |
| 2026-04-26 17:32 | -33.31627 | -70.78990 | 2724 ft | 118 kts | 177° |
| 2026-04-26 17:32 | -33.32444 | -70.78949 | 2571 ft | 116 kts | 177° |
| 2026-04-26 17:32 | -33.33250 | -70.78902 | 2421 ft | 117 kts | 178° |
| 2026-04-26 17:33 | -33.34069 | -70.78879 | 2262 ft | 116 kts | 177° |
| 2026-04-26 17:33 | -33.34851 | -70.78825 | 2150 ft | 112 kts | 177° |
| 2026-04-26 17:33 | -33.35617 | -70.78786 | 2010 ft | 108 kts | 178° |
| 2026-04-26 17:34 | -33.37129 | -70.78696 | 1711 ft | 108 kts | 178° |
| 2026-04-26 17:34 | -33.37857 | -70.78657 | 1565 ft | 100 kts | 179° |
| 2026-04-26 17:34 | -33.38457 | -70.78626 | 1558 ft | 73 kts | 177° |
| 2026-04-26 17:34 | -33.38872 | -70.78604 | 1559 ft | 36 kts | 178° |
| 2026-04-26 17:35 | -33.39106 | -70.78642 | 1557 ft | 29 kts | 201° |
| 2026-04-26 17:35 | -33.39232 | -70.78718 | 1558 ft | 19 kts | 207° |
| 2026-04-26 17:35 | -33.39303 | -70.78834 | 1558 ft | 19 kts | 269° |
| 2026-04-26 17:35 | -33.39310 | -70.78994 | 1558 ft | 19 kts | 267° |
| 2026-04-26 17:36 | -33.39312 | -70.79134 | 1558 ft | 11 kts | 285° |
| 2026-04-26 17:36 | -33.39248 | -70.79143 | 1558 ft | 14 kts | 359° |
| 2026-04-26 17:36 | -33.39213 | -70.79166 | 1558 ft | 9 kts | 271° |
| 2026-04-26 17:36 | -33.39226 | -70.79196 | 1558 ft | 2 kts | 240° |
| 2026-04-26 17:37 | -33.39221 | -70.79197 | 1558 ft | 0 kts | 42° |
| 2026-04-26 17:37 | -33.39220 | -70.79197 | 1558 ft | 0 kts | 46° |